| Place | Name | Time | Raw score | Score |
|---|---|---|---|---|
| 1 | -DarkLlama- | 53.56 | 1,000 | 313 |
| 2 | Maxter Max | 53.99 | 900 | 282 |
| 3 | blue | 55.37 | 859 | 269 |
| 4 | Tribow | 55.93 | 827 | 259 |
| 5 | concil | 56.45 | 800 | 251 |
| 6 | IllKIllU | 56.81 | 777 | 244 |
| 7 | KnightBane | 1:04.16 | 756 | 237 |
| 8 | Jay2a | 1:05.85 | 736 | 231 |
| 9 | XiQu3sT | 1:06.22 | 718 | 225 |
| 10 | Host | 1:07.07 | 700 | 219 |
| 11 | Dreigo | 1:09.87 | 684 | 214 |
| 12 | Ferreus | 1:13.06 | 669 | 210 |
| 13 | slug ʕ●.●ʔ | 1:13.20 | 654 | 205 |
| 14 | Zany | 1:13.23 | 640 | 201 |
| 15 | Thermos | 1:13.41 | 626 | 196 |
| 16 | Freud | 1:13.42 | 613 | 192 |
| 17 | Nico | 1:13.43 | 600 | 188 |
| 18 | DefenderOfHyrule | 1:13.51 | 588 | 184 |
| 19 | Waonder | 1:13.54 | 576 | 181 |
| 20 | snugglebottom | 1:13.58 | 565 | 177 |
| 21 | Californ1a | 1:13.64 | 553 | 173 |
| 22 | WarmanCD | 1:13.66 | 542 | 170 |
| 23 | Kinix | 1:13.69 | 531 | 166 |
| 23 | EteraKagekara | 1:13.69 | 531 | 166 |
| 25 | Razzr | 1:13.75 | 511 | 160 |
| 25 | TP-N.co PC-118 B-10001110101 | 1:13.75 | 511 | 160 |
| 27 | Sidewinder Fang | 1:13.76 | 491 | 154 |
| 28 | // Vaffe | 1:13.79 | 481 | 151 |
| 28 | MyurrDurr | 1:13.79 | 481 | 151 |
| 30 | FluffyTheZombii | 1:13.80 | 462 | 145 |
| 31 | Other XIX | 1:13.81 | 453 | 142 |
| 32 | jason | 1:13.82 | 444 | 139 |
| 33 | Pepsiboy74 | 1:13.90 | 435 | 136 |
| 34 | PathToV1ctory | 1:13.91 | 426 | 134 |
| 35 | Overlord | 1:13.92 | 417 | 131 |
| 36 | Myogi Night | 1:13.95 | 409 | 128 |
| 37 | menkaru | 1:14.00 | 400 | 125 |
| 38 | -TrønExalon- | 1:14.01 | 392 | 123 |
| 39 | A̶͓̓z̷͓̍ũ̴̩r̷͔͐e̴ | 1:14.04 | 384 | 120 |
| 39 | gp | 1:14.04 | 384 | 120 |
| 41 | Bunker475 | 1:14.05 | 368 | 115 |
| 42 | Hayden | 1:14.07 | 360 | 113 |
| 43 | The Unusual Suspect | 1:14.10 | 352 | 110 |
| 43 | BuzzinBeatz™ | 1:14.10 | 352 | 110 |
| 45 | Bridge | 1:14.11 | 337 | 106 |
| 46 | rbrules | 1:14.12 | 330 | 103 |
| 47 | BennLivid | 1:14.15 | 322 | 101 |
| 47 | NicholasKB19 | 1:14.15 | 322 | 101 |
| 49 | TheMelonGod | 1:14.18 | 308 | 97 |
| 50 | Alrunes | 1:14.19 | 300 | 94 |
| 51 | Agent-Cryspy | 1:14.20 | 293 | 92 |
| 52 | itsukarine | 1:14.23 | 286 | 90 |
| 53 | JacquetheRipper | 1:14.26 | 279 | 87 |
| 54 | Alphaconda | 1:14.27 | 272 | 85 |
| 55 | Nerf | 1:14.28 | 266 | 83 |
| 55 | James "Papa Het" Hetfield | 1:14.28 | 266 | 83 |
| 57 | Wollkopf | 1:14.33 | 252 | 79 |
| 57 | CodedCrow | 1:14.33 | 252 | 79 |
| 57 | Kenaz | 1:14.33 | 252 | 79 |
| 60 | aoe_emp | 1:14.37 | 232 | 73 |
| 60 | Spartan117® | 1:14.37 | 232 | 73 |
| 62 | Arrav | 1:14.38 | 219 | 69 |
| 63 | Curious Fish | 1:14.40 | 213 | 67 |
| 63 | Ashton_bro | 1:14.40 | 213 | 67 |
| 65 | Owem | 1:14.41 | 200 | 63 |
| 66 | SukairenTTV | 1:14.42 | 194 | 61 |
| 66 | GTNeon | 1:14.42 | 194 | 61 |
| 68 | bacon | 1:14.43 | 182 | 57 |
| 68 | lEm=uS | 1:14.43 | 182 | 57 |
| 70 | CuddleStrike | 1:14.45 | 170 | 53 |
| 71 | cptnbean | 1:14.48 | 164 | 51 |
| 72 | infomercial | 1:14.50 | 158 | 50 |
| 72 | GaiaGaiyus | 1:14.50 | 158 | 50 |
| 74 | SlowScan | 1:14.51 | 146 | 46 |
| 75 | Iris | 1:14.53 | 140 | 44 |
| 76 | Birb | 1:14.56 | 134 | 42 |
| 76 | RaiderZulu | 1:14.56 | 134 | 42 |
| 76 | Rombommind | 1:14.56 | 134 | 42 |
| 79 | Lliane | 1:14.57 | 117 | 37 |
| 79 | Lambreck | 1:14.57 | 117 | 37 |
| 81 | Lysander | 1:14.63 | 106 | 33 |
| 82 | Roboraser | 1:14.64 | 100 | 31 |
| 83 | [T-PP] PhiniksPlays | 1:14.65 | 95 | 30 |
| 83 | Гвоздь | 1:14.65 | 95 | 30 |
| 85 | ReallyDumbFox | 1:14.66 | 84 | 26 |
| 86 | cocob4 | 1:14.68 | 79 | 25 |
| 86 | CHAINSAW MONKEY! | 1:14.68 | 79 | 25 |
| 88 | Eagl3 | 1:14.72 | 68 | 21 |
| 89 | lefor0416 | 1:14.75 | 62 | 19 |
| 90 | pcl219 | 1:14.76 | 57 | 18 |
| 90 | S.Kappelmann | 1:14.76 | 57 | 18 |
| 92 | Lethologica7 | 1:14.80 | 47 | 15 |
| 92 | Felix | 1:14.80 | 47 | 15 |
| 94 | BuzZoiD | 1:14.81 | 36 | 11 |
| 94 | e⁻ | 1:14.81 | 36 | 11 |
| 94 | youtube vembress | 1:14.81 | 36 | 11 |
| 97 | Mr. Bird | 1:14.82 | 21 | 7 |
| 97 | Some immortal blob creature | 1:14.82 | 21 | 7 |
| 99 | The Biggest [REDACTED] Ogre | 1:14.83 | 11 | 3 |
| 99 | Ruslan145 | 1:14.83 | 11 | 3 |
| 101 | Pepino | 1:14.84 | 0 | 0 |
| 102 | MercCross | 1:14.86 | 0 | 0 |
| 103 | solace | 1:14.90 | 0 | 0 |
| 103 | Viridus | 1:14.90 | 0 | 0 |
| 105 | Nero | 1:14.91 | 0 | 0 |
| 106 | simplesystem | 1:14.92 | 0 | 0 |
| 107 | Dewwer | 1:14.93 | 0 | 0 |
| 107 | The Ðrifter | 1:14.93 | 0 | 0 |
| 109 | Žydras | 1:14.94 | 0 | 0 |
| 110 | ^1WᴀʀᴘWɪʀᴇ | 1:14.95 | 0 | 0 |
| 110 | Ugly Bastard | 1:14.95 | 0 | 0 |
| 112 | Predatory_Balloon | 1:14.97 | 0 | 0 |
| 113 | Cyberpunk Ice Noodle | 1:14.98 | 0 | 0 |
| 114 | Mimi | 1:14.99 | 0 | 0 |
| 115 | [TSA] Siggi | 1:15.00 | 0 | 0 |
| 115 | FifteenBread | 1:15.00 | 0 | 0 |
| 117 | Idle Asides | 1:15.01 | 0 | 0 |
| 118 | Sayukki | 1:15.02 | 0 | 0 |
| 119 | Sxolian | 1:15.04 | 0 | 0 |
| 120 | kriz_chan | 1:15.05 | 0 | 0 |
| 120 | momochi | 1:15.05 | 0 | 0 |
| 122 | Vencer | 1:15.06 | 0 | 0 |
| 123 | Ironman_2099 | 1:15.07 | 0 | 0 |
| 124 | Simon Evo | 1:15.09 | 0 | 0 |
| 124 | Aracnofobe | 1:15.09 | 0 | 0 |
| 124 | krizithy | 1:15.09 | 0 | 0 |
| 127 | DROCHEPOLK | 1:15.10 | 0 | 0 |
| 127 | The1AndMany | 1:15.10 | 0 | 0 |
| 129 | DamnedDeyvid | 1:15.13 | 0 | 0 |
| 130 | le0n | 1:15.15 | 0 | 0 |
| 131 | BlacKat | 1:15.16 | 0 | 0 |
| 132 | jmdajm7 | 1:15.19 | 0 | 0 |
| 132 | Pigeon | 1:15.19 | 0 | 0 |
| 134 | Sir Not Nub | 1:15.20 | 0 | 0 |
| 135 | Pinapl | 1:15.21 | 0 | 0 |
| 135 | [deleted] | 1:15.21 | 0 | 0 |
| 137 | EDFScout | 1:15.22 | 0 | 0 |
| 138 | khrisround2 | 1:15.25 | 0 | 0 |
| 139 | F.L.P-e tank24 | 1:15.27 | 0 | 0 |
| 140 | yozpoz | 1:15.33 | 0 | 0 |
| 141 | Viridian | 1:15.35 | 0 | 0 |
| 142 | PolychromeVirus | 1:15.41 | 0 | 0 |
| 143 | Byhird | 1:15.48 | 0 | 0 |
| 143 | Devil Black | 1:15.48 | 0 | 0 |
| 143 | i0nTempest | 1:15.48 | 0 | 0 |
| 146 | SkyCaptain502 | 1:15.49 | 0 | 0 |
| 147 | Boucoque | 1:15.51 | 0 | 0 |
| 148 | SneakySN | 1:15.53 | 0 | 0 |
| 149 | 문경왕개미 | 1:15.55 | 0 | 0 |
| 150 | Orphan Lion | 1:15.56 | 0 | 0 |
| 151 | Despo_357 | 1:15.57 | 0 | 0 |
| 151 | Xeno146 | 1:15.57 | 0 | 0 |
| 153 | Tem | 1:15.64 | 0 | 0 |
| 154 | 25 минут кайфа | 1:15.68 | 0 | 0 |
| 155 | Gloþ | 1:15.70 | 0 | 0 |
| 156 | Vamisk | 1:15.75 | 0 | 0 |
| 157 | danny1234331 | 1:15.79 | 0 | 0 |
| 158 | ElHombre86 | 1:15.87 | 0 | 0 |
| 158 | ("DHG")megadrago | 1:15.87 | 0 | 0 |
| 160 | Wimlex | 1:15.88 | 0 | 0 |
| 161 | Sartefi | 1:15.90 | 0 | 0 |
| 161 | Fotz | 1:15.90 | 0 | 0 |
| 163 | Nitrium | 1:15.92 | 0 | 0 |
| 164 | Weird Pumpkin | 1:15.94 | 0 | 0 |
| 165 | Dislin | 1:16.00 | 0 | 0 |
| 166 | Zach the k1ller | 1:16.02 | 0 | 0 |
| 167 | marius_redandblue | 1:16.04 | 0 | 0 |
| 168 | Dhippo | 1:16.07 | 0 | 0 |
| 169 | FlangEG | 1:16.08 | 0 | 0 |
| 170 | Krogoth | 1:16.17 | 0 | 0 |
| 170 | Torja! | 1:16.17 | 0 | 0 |
| 172 | LittleKittyArtemis | 1:16.21 | 0 | 0 |
| 173 | PYROM4NI4CC | 1:16.24 | 0 | 0 |
| 173 | Old Bastard | 1:16.24 | 0 | 0 |
| 175 | K-NiGHT | 1:16.26 | 0 | 0 |
| 175 | Chase | 1:16.26 | 0 | 0 |
| 177 | MarsDevastater | 1:16.29 | 0 | 0 |
| 178 | Galaxic | 1:16.32 | 0 | 0 |
| 179 | Soulguard | 1:16.33 | 0 | 0 |
| 180 | Datacrab | 1:16.51 | 0 | 0 |
| 181 | [Lard] Kriltch | 1:16.64 | 0 | 0 |
| 182 | DreamHazard | 1:16.71 | 0 | 0 |
| 183 | Jass5991 | 1:16.82 | 0 | 0 |
| 184 | Yor Forger | 1:16.90 | 0 | 0 |
| 185 | Patches | 1:17.20 | 0 | 0 |
| 186 | Njac | 1:17.26 | 0 | 0 |
| 187 | Mikouille | 1:17.37 | 0 | 0 |
| 188 | pox | 1:17.57 | 0 | 0 |
| 189 | Sartha | 1:17.60 | 0 | 0 |
| 190 | TheEvilMidnightBomber | 1:17.66 | 0 | 0 |
| 191 | Natr | 1:17.67 | 0 | 0 |
| 192 | KLABOEM | 1:17.81 | 0 | 0 |
| 193 | A.G.B. | 1:17.85 | 0 | 0 |
| 194 | Hanimani2 | 1:18.04 | 0 | 0 |
| 195 | Jarminx | 1:18.44 | 0 | 0 |
| 196 | Qioury | 1:18.51 | 0 | 0 |
| 197 | Sev | 1:18.57 | 0 | 0 |
| 198 | Strayman | 1:18.60 | 0 | 0 |
| 199 | ErzoopaRTR | 1:18.68 | 0 | 0 |
| 200 | Jezo | 1:18.74 | 0 | 0 |
| 201 | The Blue Fox | 1:18.78 | 0 | 0 |
| 202 | BluntButters | 1:18.79 | 0 | 0 |
| 203 | Vendall | 1:18.82 | 0 | 0 |
| 203 | Well Shit | 1:18.82 | 0 | 0 |
| 205 | Loys Nuva | 1:18.98 | 0 | 0 |
| 206 | Stracker | 1:19.04 | 0 | 0 |
| 207 | Onyon | 1:19.10 | 0 | 0 |
| 208 | DGJFTZ | 1:19.16 | 0 | 0 |
| 209 | PinesOfChaos | 1:19.25 | 0 | 0 |
| 210 | Ozymandias | 1:19.27 | 0 | 0 |
| 211 | Ame | 1:19.32 | 0 | 0 |
| 212 | Void Concept | 1:19.35 | 0 | 0 |
| 213 | Uni | 1:19.52 | 0 | 0 |
| 214 | Naikel [FR] | 1:19.55 | 0 | 0 |
| 214 | RaptorPort | 1:19.55 | 0 | 0 |
| 214 | JayBoneJay | 1:19.55 | 0 | 0 |
| 217 | Crubo | 1:19.65 | 0 | 0 |
| 218 | Seere | 1:19.72 | 0 | 0 |
| 218 | Hexagon240 | 1:19.72 | 0 | 0 |
| 220 | Andy95 | 1:19.91 | 0 | 0 |
| 221 | Lytano | 1:19.94 | 0 | 0 |
| 222 | Sunnydan | 1:20.04 | 0 | 0 |
| 223 | Luminous | 1:20.13 | 0 | 0 |
| 224 | Lupin_The_Unwanted | 1:20.18 | 0 | 0 |
| 225 | Salt | 1:20.20 | 0 | 0 |
| 226 | BK Trombley | 1:20.21 | 0 | 0 |
| 227 | Skrall' | 1:20.23 | 0 | 0 |
| 228 | a funny doggirl | 1:20.27 | 0 | 0 |
| 229 | Epsilon_Knight | 1:20.40 | 0 | 0 |
| 230 | AsthWuglim | 1:20.43 | 0 | 0 |
| 231 | Voltaic | 1:20.59 | 0 | 0 |
| 232 | Lightshift | 1:20.60 | 0 | 0 |
| 232 | Lichgrave | 1:20.60 | 0 | 0 |
| 234 | SquirrelSama | 1:20.62 | 0 | 0 |
| 235 | Art Vandelay | 1:20.64 | 0 | 0 |
| 236 | JohnCorby | 1:20.77 | 0 | 0 |
| 237 | RL | 1:20.88 | 0 | 0 |
| 238 | eschaton | 1:20.91 | 0 | 0 |
| 239 | ant | 1:20.94 | 0 | 0 |
| 240 | Hirochi | 1:21.10 | 0 | 0 |
| 241 | orbie | 1:21.22 | 0 | 0 |
| 242 | forestbeasts | 1:21.27 | 0 | 0 |
| 243 | Paps | 1:21.30 | 0 | 0 |
| 243 | seismo98 | 1:21.30 | 0 | 0 |
| 245 | Злой Noob | 1:21.34 | 0 | 0 |
| 246 | Fruchtschnittchen | 1:21.45 | 0 | 0 |
| 247 | ketikidistv | 1:21.48 | 0 | 0 |
| 248 | Spaceburger | 1:21.56 | 0 | 0 |
| 249 | BananaHD910 | 1:21.58 | 0 | 0 |
| 250 | kaisavi | 1:21.61 | 0 | 0 |
| 251 | -Ω- | 1:21.78 | 0 | 0 |
| 252 | Calcarious | 1:21.96 | 0 | 0 |
| 252 | Shjohn | 1:21.96 | 0 | 0 |
| 254 | PurpleCloset | 1:21.97 | 0 | 0 |
| 255 | TokkiTemple | 1:21.99 | 0 | 0 |
| 255 | Raxogent | 1:21.99 | 0 | 0 |
| 257 | Rain with Cappuccino | 1:22.17 | 0 | 0 |
| 258 | Gaaratoncul (Will) | 1:22.23 | 0 | 0 |
| 259 | VectorBot | 1:22.25 | 0 | 0 |
| 260 | Helios | 1:22.30 | 0 | 0 |
| 261 | Pompous Whale | 1:22.37 | 0 | 0 |
| 262 | Neoblastz | 1:22.46 | 0 | 0 |
| 263 | The Good Gaming Dragon | 1:22.81 | 0 | 0 |
| 264 | 16aroth6 | 1:22.85 | 0 | 0 |
| 265 | smashingdrop17 | 1:22.95 | 0 | 0 |
| 266 | CygnusAutomata | 1:23.16 | 0 | 0 |
| 267 | vista_narvas | 1:23.17 | 0 | 0 |
| 268 | Quadrigon | 1:23.23 | 0 | 0 |
| 269 | Caradog | 1:23.37 | 0 | 0 |
| 270 | Lost_Incentive | 1:23.48 | 0 | 0 |
| 271 | Inzarin | 1:23.52 | 0 | 0 |
| 272 | Santah_Klaus69 | 1:23.54 | 0 | 0 |
| 273 | Steviation | 1:23.67 | 0 | 0 |
| 274 | Taro | 1:23.75 | 0 | 0 |
| 275 | Dracheron | 1:23.83 | 0 | 0 |
| 276 | LachenJager | 1:23.92 | 0 | 0 |
| 277 | The Spoopiest Centaur | 1:24.17 | 0 | 0 |
| 278 | Makuta | 1:24.40 | 0 | 0 |
| 279 | B'neppe | 1:24.47 | 0 | 0 |
| 280 | Critical WEASEL | 1:24.51 | 0 | 0 |
| 281 | Yui Strawberry | 1:24.55 | 0 | 0 |
| 282 | skuzzzy | 1:24.71 | 0 | 0 |
| 283 | Big Chungus2010 | 1:24.78 | 0 | 0 |
| 284 | Player145 | 1:24.84 | 0 | 0 |
| 285 | Gragzone | 1:24.86 | 0 | 0 |
| 286 | 貝 | 1:24.91 | 0 | 0 |
| 287 | Sambravo501st | 1:24.99 | 0 | 0 |
| 288 | TajPilon | 1:25.28 | 0 | 0 |
| 289 | Axerol | 1:25.31 | 0 | 0 |
| 290 | JaimmyShine | 1:25.42 | 0 | 0 |
| 291 | Slate | 1:25.49 | 0 | 0 |
| 292 | Thunder | 1:25.58 | 0 | 0 |
| 293 | Aldebaran | 1:25.65 | 0 | 0 |
| 294 | Mathias | 1:25.77 | 0 | 0 |
| 295 | PINGU | 1:26.12 | 0 | 0 |
| 296 | BrandonK-TN | 1:26.68 | 0 | 0 |
| 297 | Dgeept | 1:26.86 | 0 | 0 |
| 298 | fischpferd | 1:26.97 | 0 | 0 |
| 299 | florian.s | 1:26.98 | 0 | 0 |
| 300 | bmrc97 | 1:27.24 | 0 | 0 |
| 301 | Uschaschmichr | 1:27.73 | 0 | 0 |
| 302 | Unknown Nomad | 1:27.88 | 0 | 0 |
| 303 | CS | 1:28.15 | 0 | 0 |
| 304 | Sharknado34 | 1:28.34 | 0 | 0 |
| 305 | garg | 1:28.38 | 0 | 0 |
| 306 | Krazy8s | 1:28.40 | 0 | 0 |
| 307 | Merle | 1:28.45 | 0 | 0 |
| 308 | tersaii | 1:28.62 | 0 | 0 |
| 309 | Toni Ravioli | 1:28.71 | 0 | 0 |
| 310 | Sibsen | 1:28.77 | 0 | 0 |
| 311 | pager | 1:29.12 | 0 | 0 |
| 312 | Divisionary | 1:29.56 | 0 | 0 |
| 313 | Alesha170 | 1:29.57 | 0 | 0 |
| 314 | alpha | 1:29.61 | 0 | 0 |
| 315 | [SUSPENDED] Marre | 1:29.74 | 0 | 0 |
| 316 | Black Bold Bee | 1:29.93 | 0 | 0 |
| 317 | Rieper | 1:30.28 | 0 | 0 |
| 318 | FlamingFlamingo | 1:30.37 | 0 | 0 |
| 319 | GrayK | 1:30.73 | 0 | 0 |
| 320 | Jarek718 | 1:31.00 | 0 | 0 |
| 321 | The Dank Magician | 1:31.27 | 0 | 0 |
| 322 | Giraffe | 1:31.30 | 0 | 0 |
| 323 | SADVCobra | 1:31.65 | 0 | 0 |
| 324 | Plasmawario | 1:31.80 | 0 | 0 |
| 325 | Xandrak | 1:31.93 | 0 | 0 |
| 326 | Anerix (Paradox) Cormin Quanadol | 1:32.03 | 0 | 0 |
| 327 | [CPC] Loddfafnir | 1:32.07 | 0 | 0 |
| 327 | Rybot | 1:32.07 | 0 | 0 |
| 329 | Eddie980® | 1:32.27 | 0 | 0 |
| 330 | Pluppinator | 1:32.31 | 0 | 0 |
| 331 | Leyice.- | 1:32.32 | 0 | 0 |
| 332 | < M A T > | 1:32.58 | 0 | 0 |
| 333 | VinoStained | 1:32.63 | 0 | 0 |
| 334 | Master Tang | 1:32.82 | 0 | 0 |
| 335 | tipek360 | 1:32.94 | 0 | 0 |
| 336 | EnderKill98 | 1:33.05 | 0 | 0 |
| 337 | CMDRVITELL | 1:33.24 | 0 | 0 |
| 338 | Krull | 1:33.54 | 0 | 0 |
| 339 | SushiBomber | 1:33.58 | 0 | 0 |
| 340 | Meda | 1:33.60 | 0 | 0 |
| 341 | Talisman060 | 1:33.90 | 0 | 0 |
| 342 | Frozen Dino | 1:34.32 | 0 | 0 |
| 343 | Seinah | 1:34.33 | 0 | 0 |
| 344 | leon | 1:34.41 | 0 | 0 |
| 345 | Noctis | 1:34.44 | 0 | 0 |
| 346 | Fugaz | 1:34.45 | 0 | 0 |
| 346 | Sagara | 1:34.45 | 0 | 0 |
| 348 | Xiotis | 1:34.99 | 0 | 0 |
| 349 | Stalmocan | 1:35.64 | 0 | 0 |
| 350 | NoteKlix | 1:35.75 | 0 | 0 |
| 351 | Katyusha | 1:35.83 | 0 | 0 |
| 352 | NileDeath | 1:35.97 | 0 | 0 |
| 353 | Phreanox | 1:36.45 | 0 | 0 |
| 354 | Yipp | 1:36.67 | 0 | 0 |
| 355 | Apocalyptic Bunny | 1:37.16 | 0 | 0 |
| 356 | Psycho1733 | 1:37.93 | 0 | 0 |
| 357 | God of Hell Fire | 1:38.53 | 0 | 0 |
| 358 | Diaminerre | 1:38.60 | 0 | 0 |
| 359 | boombask | 1:39.43 | 0 | 0 |
| 360 | bruno_revolut | 1:39.51 | 0 | 0 |
| 361 | Aksomati | 1:40.14 | 0 | 0 |
| 362 | epidemie | 1:40.20 | 0 | 0 |
| 363 | synco | 1:40.61 | 0 | 0 |
| 364 | CalculonJones | 1:41.36 | 0 | 0 |
| 365 | PocketLolly | 1:41.62 | 0 | 0 |
| 366 | Queritz | 1:41.64 | 0 | 0 |
| 367 | reset | 1:41.71 | 0 | 0 |
| 368 | Lethal Recon | 1:41.81 | 0 | 0 |
| 369 | Minyon69 | 1:41.90 | 0 | 0 |
| 370 | Ara | 1:43.35 | 0 | 0 |
| 371 | Xeno | 1:44.27 | 0 | 0 |
| 372 | Emazeco | 1:45.18 | 0 | 0 |
| 373 | SPAS SAPPING MA SENTRY | 1:46.07 | 0 | 0 |
| 374 | LIGHTNING THE FOX | 1:47.93 | 0 | 0 |
| 375 | D2C | Chrisc02 | 1:48.06 | 0 | 0 |
| 376 | beanii | 1:48.14 | 0 | 0 |
| 377 | Haeth | 1:48.38 | 0 | 0 |
| 378 | ultra | 1:49.12 | 0 | 0 |
| 379 | 모리 | 1:50.44 | 0 | 0 |
| 380 | Rusty Shackleford | 1:50.68 | 0 | 0 |
| 381 | ERIC STRIKE INCOMING | 1:50.96 | 0 | 0 |
| 382 | woohay | 1:51.84 | 0 | 0 |
| 383 | thebigbluesky | 1:52.21 | 0 | 0 |
| 384 | GroovyDoo | 1:52.55 | 0 | 0 |
| 385 | NostalgicNephew02 | 1:54.05 | 0 | 0 |
| 386 | Cryvan | 1:54.08 | 0 | 0 |
| 387 | WitchOnFire | 1:55.11 | 0 | 0 |
| 388 | PlΣXi | 1:57.65 | 0 | 0 |
| 389 | [deleted] | 1:59.23 | 0 | 0 |
| 390 | Lady Vira | 2:01.90 | 0 | 0 |
| 391 | Swash | 2:04.56 | 0 | 0 |
| 392 | Kincaid | 2:04.79 | 0 | 0 |
| 393 | Piiec | 2:05.11 | 0 | 0 |
| 394 | Skyward Nerd | 2:06.79 | 0 | 0 |
| 395 | korada | 2:07.30 | 0 | 0 |
| 396 | IanRosk | 2:08.32 | 0 | 0 |
| 397 | Boomouch ♞ | 2:08.39 | 0 | 0 |
| 398 | Sappytron | 2:10.96 | 0 | 0 |
| 399 | TS_Mind_Swept | 2:12.14 | 0 | 0 |
| 400 | Caffeine Cat | 2:13.13 | 0 | 0 |
| 401 | GlizzyyyMaguire | 2:17.68 | 0 | 0 |
| 402 | hyev7fam | 2:35.55 | 0 | 0 |
| 403 | samson13 | 3:18.27 | 0 | 0 |
| 404 | SealedVessel | 3:22.63 | 0 | 0 |
| 405 | Azem_of_Earth | 3:43.26 | 0 | 0 |
| 406 | Shadiest | 3:48.15 | 0 | 0 |
| 407 | Blahaj Blast | 3:57.05 | 0 | 0 |
| 408 | Mr.Anthony | 4:21.34 | 0 | 0 |
| 409 | Absolute_Ryan | 4:35.29 | 0 | 0 |
| 410 | HotGamer1995 | 5:59.93 | 0 | 0 |
| 411 | Jake | 6:02.97 | 0 | 0 |
| 412 | DogemaN | 6:18.54 | 0 | 0 |
| 413 | bruno | 7:00.54 | 0 | 0 |
HoldGrip